sensor_id;sensor_type;location;lat;lon;timestamp;temperature;humidity
12060;DHT22;6091;51.432;6.880;2023-10-31T00:00:41;24.20;46.20
12060;DHT22;6091;51.432;6.880;2023-10-31T00:03:08;24.20;46.10
12060;DHT22;6091;51.432;6.880;2023-10-31T00:05:37;24.20;46.20
12060;DHT22;6091;51.432;6.880;2023-10-31T00:08:05;24.20;46.40
12060;DHT22;6091;51.432;6.880;2023-10-31T00:10:32;24.20;46.10
12060;DHT22;6091;51.432;6.880;2023-10-31T00:12:59;24.20;46.10
12060;DHT22;6091;51.432;6.880;2023-10-31T00:15:26;24.20;46.10
12060;DHT22;6091;51.432;6.880;2023-10-31T00:17:55;24.20;46.10
12060;DHT22;6091;51.432;6.880;2023-10-31T00:20:23;24.20;46.20
12060;DHT22;6091;51.432;6.880;2023-10-31T00:22:50;24.20;46.20
12060;DHT22;6091;51.432;6.880;2023-10-31T00:25:17;24.20;46.20
12060;DHT22;6091;51.432;6.880;2023-10-31T00:27:44;24.20;46.20
12060;DHT22;6091;51.432;6.880;2023-10-31T00:30:12;24.20;46.20
12060;DHT22;6091;51.432;6.880;2023-10-31T00:32:39;24.20;46.20
12060;DHT22;6091;51.432;6.880;2023-10-31T00:35:07;24.10;46.10
12060;DHT22;6091;51.432;6.880;2023-10-31T00:37:34;24.20;46.20
12060;DHT22;6091;51.432;6.880;2023-10-31T00:40:02;24.10;46.10
12060;DHT22;6091;51.432;6.880;2023-10-31T00:42:29;24.10;46.10
12060;DHT22;6091;51.432;6.880;2023-10-31T00:44:56;24.20;46.20
12060;DHT22;6091;51.432;6.880;2023-10-31T00:47:23;24.10;46.10
12060;DHT22;6091;51.432;6.880;2023-10-31T00:49:50;24.10;46.10
12060;DHT22;6091;51.432;6.880;2023-10-31T00:52:19;24.10;46.10
12060;DHT22;6091;51.432;6.880;2023-10-31T00:54:47;24.10;46.20
12060;DHT22;6091;51.432;6.880;2023-10-31T00:57:14;24.10;46.20
12060;DHT22;6091;51.432;6.880;2023-10-31T00:59:41;24.10;46.20
12060;DHT22;6091;51.432;6.880;2023-10-31T01:02:09;24.10;46.20
12060;DHT22;6091;51.432;6.880;2023-10-31T01:04:36;24.10;46.20
12060;DHT22;6091;51.432;6.880;2023-10-31T01:07:06;24.10;46.20
12060;DHT22;6091;51.432;6.880;2023-10-31T01:09:34;24.10;46.20
12060;DHT22;6091;51.432;6.880;2023-10-31T01:12:01;24.10;46.20
12060;DHT22;6091;51.432;6.880;2023-10-31T01:14:29;24.10;46.20
12060;DHT22;6091;51.432;6.880;2023-10-31T01:16:56;24.10;46.20
12060;DHT22;6091;51.432;6.880;2023-10-31T01:19:23;24.10;46.20
12060;DHT22;6091;51.432;6.880;2023-10-31T01:21:50;24.10;46.20
12060;DHT22;6091;51.432;6.880;2023-10-31T01:24:20;24.00;46.10
12060;DHT22;6091;51.432;6.880;2023-10-31T01:26:47;24.10;46.20
12060;DHT22;6091;51.432;6.880;2023-10-31T01:29:15;24.00;46.10
12060;DHT22;6091;51.432;6.880;2023-10-31T01:31:42;24.00;46.10
12060;DHT22;6091;51.432;6.880;2023-10-31T01:34:25;24.00;46.20
12060;DHT22;6091;51.432;6.880;2023-10-31T01:36:52;24.00;46.10
12060;DHT22;6091;51.432;6.880;2023-10-31T01:39:19;24.00;46.20
12060;DHT22;6091;51.432;6.880;2023-10-31T01:41:46;24.00;46.80
12060;DHT22;6091;51.432;6.880;2023-10-31T01:44:14;24.00;46.20
12060;DHT22;6091;51.432;6.880;2023-10-31T01:46:44;24.00;46.20
12060;DHT22;6091;51.432;6.880;2023-10-31T01:49:11;24.00;46.20
12060;DHT22;6091;51.432;6.880;2023-10-31T01:51:41;24.00;46.20
12060;DHT22;6091;51.432;6.880;2023-10-31T01:54:09;24.00;46.30
12060;DHT22;6091;51.432;6.880;2023-10-31T01:56:37;24.00;46.30
12060;DHT22;6091;51.432;6.880;2023-10-31T01:59:06;24.00;46.30
12060;DHT22;6091;51.432;6.880;2023-10-31T02:01:38;24.00;46.30
12060;DHT22;6091;51.432;6.880;2023-10-31T02:04:07;24.00;46.30
12060;DHT22;6091;51.432;6.880;2023-10-31T02:06:34;24.00;46.30
12060;DHT22;6091;51.432;6.880;2023-10-31T02:09:01;24.00;46.20
12060;DHT22;6091;51.432;6.880;2023-10-31T02:11:29;23.90;46.20
12060;DHT22;6091;51.432;6.880;2023-10-31T02:13:56;24.00;46.20
12060;DHT22;6091;51.432;6.880;2023-10-31T02:16:23;24.00;46.20
12060;DHT22;6091;51.432;6.880;2023-10-31T02:18:52;24.00;46.30
12060;DHT22;6091;51.432;6.880;2023-10-31T02:21:20;24.00;46.30
12060;DHT22;6091;51.432;6.880;2023-10-31T02:24:01;24.00;46.30
12060;DHT22;6091;51.432;6.880;2023-10-31T02:26:31;24.00;46.40
12060;DHT22;6091;51.432;6.880;2023-10-31T02:29:01;24.00;46.30
12060;DHT22;6091;51.432;6.880;2023-10-31T02:31:29;23.90;46.20
12060;DHT22;6091;51.432;6.880;2023-10-31T02:33:59;24.00;46.20
12060;DHT22;6091;51.432;6.880;2023-10-31T02:36:26;23.90;46.30
12060;DHT22;6091;51.432;6.880;2023-10-31T02:38:54;23.90;46.20
12060;DHT22;6091;51.432;6.880;2023-10-31T02:41:21;23.90;46.30
12060;DHT22;6091;51.432;6.880;2023-10-31T02:43:48;23.90;46.30
12060;DHT22;6091;51.432;6.880;2023-10-31T02:46:16;23.90;46.30
12060;DHT22;6091;51.432;6.880;2023-10-31T02:48:44;23.90;46.20
12060;DHT22;6091;51.432;6.880;2023-10-31T02:51:11;23.90;46.20
12060;DHT22;6091;51.432;6.880;2023-10-31T02:53:38;23.90;46.20
12060;DHT22;6091;51.432;6.880;2023-10-31T02:56:06;23.90;46.30
12060;DHT22;6091;51.432;6.880;2023-10-31T02:58:34;23.90;46.30
12060;DHT22;6091;51.432;6.880;2023-10-31T03:01:01;23.90;46.30
12060;DHT22;6091;51.432;6.880;2023-10-31T03:03:28;23.90;46.30
12060;DHT22;6091;51.432;6.880;2023-10-31T03:05:56;23.90;46.30
12060;DHT22;6091;51.432;6.880;2023-10-31T03:08:23;23.90;46.20
12060;DHT22;6091;51.432;6.880;2023-10-31T03:10:50;23.80;46.20
12060;DHT22;6091;51.432;6.880;2023-10-31T03:13:18;23.90;46.30
12060;DHT22;6091;51.432;6.880;2023-10-31T03:15:46;23.80;46.20
12060;DHT22;6091;51.432;6.880;2023-10-31T03:18:14;23.80;46.20
12060;DHT22;6091;51.432;6.880;2023-10-31T03:20:44;23.90;46.30
12060;DHT22;6091;51.432;6.880;2023-10-31T03:23:13;23.90;46.30
12060;DHT22;6091;51.432;6.880;2023-10-31T03:25:40;23.90;46.30
12060;DHT22;6091;51.432;6.880;2023-10-31T03:28:18;23.80;46.20
12060;DHT22;6091;51.432;6.880;2023-10-31T03:30:47;23.90;46.40
12060;DHT22;6091;51.432;6.880;2023-10-31T03:33:15;23.80;46.20
12060;DHT22;6091;51.432;6.880;2023-10-31T03:35:46;23.80;46.20
12060;DHT22;6091;51.432;6.880;2023-10-31T03:38:13;23.80;46.20
12060;DHT22;6091;51.432;6.880;2023-10-31T03:40:41;23.80;46.20
12060;DHT22;6091;51.432;6.880;2023-10-31T03:43:08;23.80;46.20
12060;DHT22;6091;51.432;6.880;2023-10-31T03:45:35;23.80;46.20
12060;DHT22;6091;51.432;6.880;2023-10-31T03:48:02;23.80;46.20
12060;DHT22;6091;51.432;6.880;2023-10-31T03:50:30;23.80;46.30
12060;DHT22;6091;51.432;6.880;2023-10-31T03:52:57;23.80;46.20
12060;DHT22;6091;51.432;6.880;2023-10-31T03:55:24;23.80;46.30
12060;DHT22;6091;51.432;6.880;2023-10-31T03:57:52;23.80;46.20
12060;DHT22;6091;51.432;6.880;2023-10-31T04:00:19;23.80;46.30
12060;DHT22;6091;51.432;6.880;2023-10-31T04:02:46;23.80;46.30
12060;DHT22;6091;51.432;6.880;2023-10-31T04:05:13;23.80;46.30
12060;DHT22;6091;51.432;6.880;2023-10-31T04:07:41;23.80;46.30
12060;DHT22;6091;51.432;6.880;2023-10-31T04:10:10;23.80;46.20
12060;DHT22;6091;51.432;6.880;2023-10-31T04:12:37;23.80;46.30
12060;DHT22;6091;51.432;6.880;2023-10-31T04:15:06;23.80;46.30
12060;DHT22;6091;51.432;6.880;2023-10-31T04:17:34;23.80;46.30
12060;DHT22;6091;51.432;6.880;2023-10-31T04:20:02;23.80;46.30
12060;DHT22;6091;51.432;6.880;2023-10-31T04:22:30;23.80;46.30
12060;DHT22;6091;51.432;6.880;2023-10-31T04:24:57;23.80;46.30
12060;DHT22;6091;51.432;6.880;2023-10-31T04:27:24;23.80;46.20
12060;DHT22;6091;51.432;6.880;2023-10-31T04:29:51;23.80;46.30
12060;DHT22;6091;51.432;6.880;2023-10-31T04:32:18;23.70;46.20
12060;DHT22;6091;51.432;6.880;2023-10-31T04:34:46;23.80;46.30
12060;DHT22;6091;51.432;6.880;2023-10-31T04:37:14;23.80;46.30
12060;DHT22;6091;51.432;6.880;2023-10-31T04:39:41;23.70;46.30
12060;DHT22;6091;51.432;6.880;2023-10-31T04:42:09;23.80;46.40
12060;DHT22;6091;51.432;6.880;2023-10-31T04:44:36;23.70;46.30
12060;DHT22;6091;51.432;6.880;2023-10-31T04:47:03;23.70;46.30
12060;DHT22;6091;51.432;6.880;2023-10-31T04:49:31;23.70;46.30
12060;DHT22;6091;51.432;6.880;2023-10-31T04:51:58;23.70;46.20
12060;DHT22;6091;51.432;6.880;2023-10-31T04:54:25;23.70;46.30
12060;DHT22;6091;51.432;6.880;2023-10-31T04:56:52;23.80;47.00
12060;DHT22;6091;51.432;6.880;2023-10-31T04:59:19;23.70;46.30
12060;DHT22;6091;51.432;6.880;2023-10-31T05:01:50;23.70;46.30
12060;DHT22;6091;51.432;6.880;2023-10-31T05:04:18;23.70;46.30
12060;DHT22;6091;51.432;6.880;2023-10-31T05:06:45;23.70;46.30
12060;DHT22;6091;51.432;6.880;2023-10-31T05:09:14;23.70;46.30
12060;DHT22;6091;51.432;6.880;2023-10-31T05:11:45;23.70;46.30
12060;DHT22;6091;51.432;6.880;2023-10-31T05:14:13;23.70;46.40
12060;DHT22;6091;51.432;6.880;2023-10-31T05:16:44;23.70;46.30
12060;DHT22;6091;51.432;6.880;2023-10-31T05:19:11;23.70;46.40
12060;DHT22;6091;51.432;6.880;2023-10-31T05:21:38;23.70;46.30
12060;DHT22;6091;51.432;6.880;2023-10-31T05:24:07;23.70;46.30
12060;DHT22;6091;51.432;6.880;2023-10-31T05:26:35;23.70;46.40
12060;DHT22;6091;51.432;6.880;2023-10-31T05:29:02;23.70;46.40
12060;DHT22;6091;51.432;6.880;2023-10-31T05:31:30;23.70;46.30
12060;DHT22;6091;51.432;6.880;2023-10-31T05:34:00;23.70;46.30
12060;DHT22;6091;51.432;6.880;2023-10-31T05:36:33;23.70;46.20
12060;DHT22;6091;51.432;6.880;2023-10-31T05:39:01;23.70;46.30
12060;DHT22;6091;51.432;6.880;2023-10-31T05:41:28;23.70;46.40
12060;DHT22;6091;51.432;6.880;2023-10-31T05:43:55;23.70;46.40
12060;DHT22;6091;51.432;6.880;2023-10-31T05:46:22;23.70;46.40
12060;DHT22;6091;51.432;6.880;2023-10-31T05:48:50;23.70;46.40
12060;DHT22;6091;51.432;6.880;2023-10-31T05:51:18;23.70;46.40
12060;DHT22;6091;51.432;6.880;2023-10-31T05:53:47;23.70;46.40
12060;DHT22;6091;51.432;6.880;2023-10-31T05:56:16;23.70;46.40
12060;DHT22;6091;51.432;6.880;2023-10-31T05:58:43;23.70;46.40
12060;DHT22;6091;51.432;6.880;2023-10-31T06:01:11;23.70;46.40
12060;DHT22;6091;51.432;6.880;2023-10-31T06:03:41;23.70;47.00
12060;DHT22;6091;51.432;6.880;2023-10-31T06:06:13;23.60;46.30
12060;DHT22;6091;51.432;6.880;2023-10-31T06:08:40;23.70;46.40
12060;DHT22;6091;51.432;6.880;2023-10-31T06:11:08;23.70;46.40
12060;DHT22;6091;51.432;6.880;2023-10-31T06:13:39;23.70;46.40
12060;DHT22;6091;51.432;6.880;2023-10-31T06:16:07;23.70;46.40
12060;DHT22;6091;51.432;6.880;2023-10-31T06:18:34;23.70;46.40
12060;DHT22;6091;51.432;6.880;2023-10-31T06:21:02;23.70;46.40
12060;DHT22;6091;51.432;6.880;2023-10-31T06:23:29;23.70;46.40
12060;DHT22;6091;51.432;6.880;2023-10-31T06:25:58;23.70;46.40
12060;DHT22;6091;51.432;6.880;2023-10-31T06:28:25;23.60;46.30
12060;DHT22;6091;51.432;6.880;2023-10-31T06:30:53;23.60;46.30
12060;DHT22;6091;51.432;6.880;2023-10-31T06:33:20;23.60;46.30
12060;DHT22;6091;51.432;6.880;2023-10-31T06:35:47;23.60;46.30
12060;DHT22;6091;51.432;6.880;2023-10-31T06:38:14;23.60;46.30
12060;DHT22;6091;51.432;6.880;2023-10-31T06:40:41;23.70;46.60
12060;DHT22;6091;51.432;6.880;2023-10-31T06:43:10;23.60;46.50
12060;DHT22;6091;51.432;6.880;2023-10-31T06:45:38;23.70;46.80
12060;DHT22;6091;51.432;6.880;2023-10-31T06:48:05;23.70;46.90
12060;DHT22;6091;51.432;6.880;2023-10-31T06:50:35;23.70;46.90
12060;DHT22;6091;51.432;6.880;2023-10-31T06:53:03;23.80;47.00
12060;DHT22;6091;51.432;6.880;2023-10-31T06:55:30;23.80;47.00
12060;DHT22;6091;51.432;6.880;2023-10-31T06:57:57;23.90;47.10
12060;DHT22;6091;51.432;6.880;2023-10-31T07:00:24;24.00;47.20
12060;DHT22;6091;51.432;6.880;2023-10-31T07:02:52;24.10;47.20
12060;DHT22;6091;51.432;6.880;2023-10-31T07:05:19;24.20;47.30
12060;DHT22;6091;51.432;6.880;2023-10-31T07:07:49;24.20;47.20
12060;DHT22;6091;51.432;6.880;2023-10-31T07:10:16;24.30;47.20
12060;DHT22;6091;51.432;6.880;2023-10-31T07:12:44;24.40;47.20
12060;DHT22;6091;51.432;6.880;2023-10-31T07:15:11;24.50;47.20
12060;DHT22;6091;51.432;6.880;2023-10-31T07:17:38;24.60;47.20
12060;DHT22;6091;51.432;6.880;2023-10-31T07:20:06;24.70;47.20
12060;DHT22;6091;51.432;6.880;2023-10-31T07:22:34;24.70;47.20
12060;DHT22;6091;51.432;6.880;2023-10-31T07:25:01;24.80;47.20
12060;DHT22;6091;51.432;6.880;2023-10-31T07:27:30;24.90;47.20
12060;DHT22;6091;51.432;6.880;2023-10-31T07:29:57;24.90;47.10
12060;DHT22;6091;51.432;6.880;2023-10-31T07:32:26;25.00;47.30
12060;DHT22;6091;51.432;6.880;2023-10-31T07:34:53;25.00;47.20
12060;DHT22;6091;51.432;6.880;2023-10-31T07:37:21;25.10;47.20
12060;DHT22;6091;51.432;6.880;2023-10-31T07:39:48;25.20;47.20
12060;DHT22;6091;51.432;6.880;2023-10-31T07:42:17;25.20;47.00
12060;DHT22;6091;51.432;6.880;2023-10-31T07:44:45;25.20;46.90
12060;DHT22;6091;51.432;6.880;2023-10-31T07:47:12;25.20;46.90
12060;DHT22;6091;51.432;6.880;2023-10-31T07:49:42;25.30;46.90
12060;DHT22;6091;51.432;6.880;2023-10-31T07:52:09;25.30;46.80
12060;DHT22;6091;51.432;6.880;2023-10-31T07:54:39;25.30;46.80
12060;DHT22;6091;51.432;6.880;2023-10-31T07:57:07;25.30;46.70
12060;DHT22;6091;51.432;6.880;2023-10-31T07:59:35;25.30;46.80
12060;DHT22;6091;51.432;6.880;2023-10-31T08:02:02;25.30;46.80
12060;DHT22;6091;51.432;6.880;2023-10-31T08:04:31;25.30;46.70
12060;DHT22;6091;51.432;6.880;2023-10-31T08:07:00;25.30;46.70
12060;DHT22;6091;51.432;6.880;2023-10-31T08:09:27;25.30;46.50
12060;DHT22;6091;51.432;6.880;2023-10-31T08:11:55;25.30;46.40
12060;DHT22;6091;51.432;6.880;2023-10-31T08:14:22;25.30;46.30
12060;DHT22;6091;51.432;6.880;2023-10-31T08:16:52;25.30;46.20
12060;DHT22;6091;51.432;6.880;2023-10-31T08:19:19;25.30;46.20
12060;DHT22;6091;51.432;6.880;2023-10-31T08:21:46;25.30;46.20
12060;DHT22;6091;51.432;6.880;2023-10-31T08:24:15;25.30;46.10
12060;DHT22;6091;51.432;6.880;2023-10-31T08:26:42;25.30;46.10
12060;DHT22;6091;51.432;6.880;2023-10-31T08:29:09;25.30;46.10
12060;DHT22;6091;51.432;6.880;2023-10-31T08:31:37;25.30;46.00
12060;DHT22;6091;51.432;6.880;2023-10-31T08:34:04;25.30;46.00
12060;DHT22;6091;51.432;6.880;2023-10-31T08:36:32;25.20;45.80
12060;DHT22;6091;51.432;6.880;2023-10-31T08:38:59;25.30;45.90
12060;DHT22;6091;51.432;6.880;2023-10-31T08:41:30;25.20;45.80
12060;DHT22;6091;51.432;6.880;2023-10-31T08:43:57;25.20;45.80
12060;DHT22;6091;51.432;6.880;2023-10-31T08:46:26;25.20;45.90
12060;DHT22;6091;51.432;6.880;2023-10-31T08:48:53;25.20;45.80
12060;DHT22;6091;51.432;6.880;2023-10-31T08:51:21;25.20;45.90
12060;DHT22;6091;51.432;6.880;2023-10-31T08:53:50;25.20;45.90
12060;DHT22;6091;51.432;6.880;2023-10-31T08:56:17;25.20;45.90
12060;DHT22;6091;51.432;6.880;2023-10-31T08:58:46;25.10;45.90
12060;DHT22;6091;51.432;6.880;2023-10-31T09:01:13;25.10;45.90
12060;DHT22;6091;51.432;6.880;2023-10-31T09:03:40;25.20;45.90
12060;DHT22;6091;51.432;6.880;2023-10-31T09:06:08;25.20;45.90
12060;DHT22;6091;51.432;6.880;2023-10-31T09:08:35;25.20;46.00
12060;DHT22;6091;51.432;6.880;2023-10-31T09:11:04;25.20;46.00
12060;DHT22;6091;51.432;6.880;2023-10-31T09:13:32;25.20;46.00
12060;DHT22;6091;51.432;6.880;2023-10-31T09:16:00;25.20;45.90
12060;DHT22;6091;51.432;6.880;2023-10-31T09:18:28;25.20;45.90
12060;DHT22;6091;51.432;6.880;2023-10-31T09:20:55;25.20;45.90
12060;DHT22;6091;51.432;6.880;2023-10-31T09:23:22;25.10;45.90
12060;DHT22;6091;51.432;6.880;2023-10-31T09:25:49;25.10;45.90
12060;DHT22;6091;51.432;6.880;2023-10-31T09:28:17;25.10;45.90
12060;DHT22;6091;51.432;6.880;2023-10-31T09:30:44;25.10;45.90
12060;DHT22;6091;51.432;6.880;2023-10-31T09:33:12;25.10;45.90
12060;DHT22;6091;51.432;6.880;2023-10-31T09:35:39;25.10;45.90
12060;DHT22;6091;51.432;6.880;2023-10-31T09:38:07;25.10;45.90
12060;DHT22;6091;51.432;6.880;2023-10-31T09:40:39;25.10;45.90
12060;DHT22;6091;51.432;6.880;2023-10-31T09:43:06;25.10;45.90
12060;DHT22;6091;51.432;6.880;2023-10-31T09:45:33;25.10;45.90
12060;DHT22;6091;51.432;6.880;2023-10-31T09:48:01;25.10;45.90
12060;DHT22;6091;51.432;6.880;2023-10-31T09:50:31;25.10;45.90
12060;DHT22;6091;51.432;6.880;2023-10-31T09:53:00;25.10;46.00
12060;DHT22;6091;51.432;6.880;2023-10-31T09:55:28;25.00;45.90
12060;DHT22;6091;51.432;6.880;2023-10-31T09:57:56;25.00;46.00
12060;DHT22;6091;51.432;6.880;2023-10-31T10:00:23;25.00;46.10
12060;DHT22;6091;51.432;6.880;2023-10-31T10:02:52;25.00;46.20
12060;DHT22;6091;51.432;6.880;2023-10-31T10:05:23;25.00;46.30
12060;DHT22;6091;51.432;6.880;2023-10-31T10:07:55;25.00;46.30
12060;DHT22;6091;51.432;6.880;2023-10-31T10:10:24;25.00;46.30
12060;DHT22;6091;51.432;6.880;2023-10-31T10:12:52;25.00;46.30
12060;DHT22;6091;51.432;6.880;2023-10-31T10:15:20;25.00;46.30
12060;DHT22;6091;51.432;6.880;2023-10-31T10:17:51;25.00;46.30
12060;DHT22;6091;51.432;6.880;2023-10-31T10:20:18;25.00;46.20
12060;DHT22;6091;51.432;6.880;2023-10-31T10:22:46;25.00;46.30
12060;DHT22;6091;51.432;6.880;2023-10-31T10:25:16;25.00;46.20
12060;DHT22;6091;51.432;6.880;2023-10-31T10:27:47;25.00;46.30
12060;DHT22;6091;51.432;6.880;2023-10-31T10:30:15;25.00;46.30
12060;DHT22;6091;51.432;6.880;2023-10-31T10:32:43;25.00;46.30
12060;DHT22;6091;51.432;6.880;2023-10-31T10:35:11;25.00;46.30
12060;DHT22;6091;51.432;6.880;2023-10-31T10:37:38;24.90;46.90
12060;DHT22;6091;51.432;6.880;2023-10-31T10:40:07;24.90;46.30
12060;DHT22;6091;51.432;6.880;2023-10-31T10:42:46;24.90;46.30
12060;DHT22;6091;51.432;6.880;2023-10-31T10:45:15;25.00;46.40
12060;DHT22;6091;51.432;6.880;2023-10-31T10:47:47;25.00;46.30
12060;DHT22;6091;51.432;6.880;2023-10-31T10:50:19;24.90;46.30
12060;DHT22;6091;51.432;6.880;2023-10-31T10:53:10;24.90;46.30
12060;DHT22;6091;51.432;6.880;2023-10-31T10:55:57;24.90;46.30
12060;DHT22;6091;51.432;6.880;2023-10-31T10:58:58;24.90;46.30
12060;DHT22;6091;51.432;6.880;2023-10-31T11:01:31;24.90;46.30
12060;DHT22;6091;51.432;6.880;2023-10-31T11:04:00;25.00;46.40
12060;DHT22;6091;51.432;6.880;2023-10-31T11:06:29;24.90;46.30
12060;DHT22;6091;51.432;6.880;2023-10-31T11:08:57;24.90;46.30
12060;DHT22;6091;51.432;6.880;2023-10-31T11:11:25;24.90;46.90
12060;DHT22;6091;51.432;6.880;2023-10-31T11:13:52;24.90;46.30
12060;DHT22;6091;51.432;6.880;2023-10-31T11:16:49;24.90;46.30
12060;DHT22;6091;51.432;6.880;2023-10-31T11:19:21;25.00;46.40
12060;DHT22;6091;51.432;6.880;2023-10-31T11:21:58;24.90;46.30
12060;DHT22;6091;51.432;6.880;2023-10-31T11:24:31;24.90;46.30
12060;DHT22;6091;51.432;6.880;2023-10-31T11:27:02;24.90;46.30
12060;DHT22;6091;51.432;6.880;2023-10-31T11:29:31;24.90;46.30
12060;DHT22;6091;51.432;6.880;2023-10-31T11:31:59;24.90;46.30
12060;DHT22;6091;51.432;6.880;2023-10-31T11:34:28;24.90;46.30
12060;DHT22;6091;51.432;6.880;2023-10-31T11:37:26;24.90;46.40
12060;DHT22;6091;51.432;6.880;2023-10-31T11:48:01;25.00;46.30
12060;DHT22;6091;51.432;6.880;2023-10-31T11:50:28;25.00;46.40
12060;DHT22;6091;51.432;6.880;2023-10-31T11:53:17;24.90;46.20
12060;DHT22;6091;51.432;6.880;2023-10-31T11:55:46;25.00;46.20
12060;DHT22;6091;51.432;6.880;2023-10-31T11:58:14;24.90;46.20
12060;DHT22;6091;51.432;6.880;2023-10-31T12:01:00;24.90;46.10
12060;DHT22;6091;51.432;6.880;2023-10-31T12:03:42;25.20;46.40
12060;DHT22;6091;51.432;6.880;2023-10-31T12:06:15;25.00;46.30
12060;DHT22;6091;51.432;6.880;2023-10-31T12:08:43;25.00;46.40
12060;DHT22;6091;51.432;6.880;2023-10-31T12:11:18;25.00;46.40
12060;DHT22;6091;51.432;6.880;2023-10-31T12:16:27;25.10;46.50
12060;DHT22;6091;51.432;6.880;2023-10-31T12:18:57;25.00;46.40
12060;DHT22;6091;51.432;6.880;2023-10-31T12:21:37;25.00;46.40
12060;DHT22;6091;51.432;6.880;2023-10-31T12:24:12;25.00;46.30
12060;DHT22;6091;51.432;6.880;2023-10-31T12:26:41;25.10;46.40
12060;DHT22;6091;51.432;6.880;2023-10-31T12:29:14;25.10;46.40
12060;DHT22;6091;51.432;6.880;2023-10-31T12:31:53;25.10;46.40
12060;DHT22;6091;51.432;6.880;2023-10-31T12:34:23;25.20;46.40
12060;DHT22;6091;51.432;6.880;2023-10-31T12:36:52;25.10;46.30
12060;DHT22;6091;51.432;6.880;2023-10-31T12:39:27;25.10;46.40
12060;DHT22;6091;51.432;6.880;2023-10-31T12:41:56;25.10;46.30
12060;DHT22;6091;51.432;6.880;2023-10-31T12:44:26;25.10;46.30
12060;DHT22;6091;51.432;6.880;2023-10-31T12:46:55;25.10;46.30
12060;DHT22;6091;51.432;6.880;2023-10-31T12:49:23;25.10;46.30
12060;DHT22;6091;51.432;6.880;2023-10-31T12:52:03;25.10;46.30
12060;DHT22;6091;51.432;6.880;2023-10-31T12:54:37;25.20;46.50
12060;DHT22;6091;51.432;6.880;2023-10-31T12:57:09;25.20;46.40
12060;DHT22;6091;51.432;6.880;2023-10-31T12:59:38;25.20;46.50
12060;DHT22;6091;51.432;6.880;2023-10-31T13:02:06;25.20;46.40
12060;DHT22;6091;51.432;6.880;2023-10-31T13:04:35;25.20;46.40
12060;DHT22;6091;51.432;6.880;2023-10-31T13:07:06;25.20;46.50
12060;DHT22;6091;51.432;6.880;2023-10-31T13:09:36;25.20;46.60
12060;DHT22;6091;51.432;6.880;2023-10-31T13:12:10;25.20;46.70
12060;DHT22;6091;51.432;6.880;2023-10-31T13:14:43;25.20;46.70
12060;DHT22;6091;51.432;6.880;2023-10-31T13:17:12;25.20;46.80
12060;DHT22;6091;51.432;6.880;2023-10-31T13:19:39;25.20;46.80
12060;DHT22;6091;51.432;6.880;2023-10-31T13:22:09;25.20;47.40
12060;DHT22;6091;51.432;6.880;2023-10-31T13:24:36;25.20;46.70
12060;DHT22;6091;51.432;6.880;2023-10-31T13:27:03;25.20;46.80
12060;DHT22;6091;51.432;6.880;2023-10-31T13:29:31;25.20;46.70
12060;DHT22;6091;51.432;6.880;2023-10-31T13:31:58;25.30;46.80
12060;DHT22;6091;51.432;6.880;2023-10-31T13:34:25;25.30;46.80
12060;DHT22;6091;51.432;6.880;2023-10-31T13:36:53;25.30;46.70
12060;DHT22;6091;51.432;6.880;2023-10-31T13:39:21;25.30;46.70
12060;DHT22;6091;51.432;6.880;2023-10-31T13:41:48;25.30;46.70
12060;DHT22;6091;51.432;6.880;2023-10-31T13:44:16;25.30;46.60
12060;DHT22;6091;51.432;6.880;2023-10-31T13:46:46;25.30;46.60
12060;DHT22;6091;51.432;6.880;2023-10-31T13:49:13;25.30;46.60
12060;DHT22;6091;51.432;6.880;2023-10-31T13:51:41;25.30;46.50
12060;DHT22;6091;51.432;6.880;2023-10-31T13:54:08;25.30;46.60
12060;DHT22;6091;51.432;6.880;2023-10-31T13:56:35;25.30;46.50
12060;DHT22;6091;51.432;6.880;2023-10-31T13:59:02;25.30;46.50
12060;DHT22;6091;51.432;6.880;2023-10-31T14:01:30;25.30;46.50
12060;DHT22;6091;51.432;6.880;2023-10-31T14:03:58;25.30;46.50
12060;DHT22;6091;51.432;6.880;2023-10-31T14:06:28;25.20;46.40
12060;DHT22;6091;51.432;6.880;2023-10-31T14:09:00;25.30;46.50
12060;DHT22;6091;51.432;6.880;2023-10-31T14:11:31;25.30;46.50
12060;DHT22;6091;51.432;6.880;2023-10-31T14:14:00;25.30;46.60
12060;DHT22;6091;51.432;6.880;2023-10-31T14:16:33;25.30;46.60
12060;DHT22;6091;51.432;6.880;2023-10-31T14:19:00;25.20;46.40
12060;DHT22;6091;51.432;6.880;2023-10-31T14:21:29;25.20;46.50
12060;DHT22;6091;51.432;6.880;2023-10-31T14:23:57;25.20;46.50
12060;DHT22;6091;51.432;6.880;2023-10-31T14:26:36;25.20;46.50
12060;DHT22;6091;51.432;6.880;2023-10-31T14:29:06;25.20;46.50
12060;DHT22;6091;51.432;6.880;2023-10-31T14:31:39;25.20;46.60
12060;DHT22;6091;51.432;6.880;2023-10-31T14:34:10;25.20;46.70
12060;DHT22;6091;51.432;6.880;2023-10-31T14:36:37;25.20;46.70
12060;DHT22;6091;51.432;6.880;2023-10-31T14:39:05;25.20;46.70
12060;DHT22;6091;51.432;6.880;2023-10-31T14:41:33;25.20;46.70
12060;DHT22;6091;51.432;6.880;2023-10-31T14:44:01;25.20;46.70
12060;DHT22;6091;51.432;6.880;2023-10-31T14:46:30;25.20;46.70
12060;DHT22;6091;51.432;6.880;2023-10-31T14:48:58;25.20;46.70
12060;DHT22;6091;51.432;6.880;2023-10-31T14:51:25;25.20;46.80
12060;DHT22;6091;51.432;6.880;2023-10-31T14:53:53;25.20;46.80
12060;DHT22;6091;51.432;6.880;2023-10-31T14:56:20;24.70;46.40
12060;DHT22;6091;51.432;6.880;2023-10-31T14:58:50;25.20;46.80
12060;DHT22;6091;51.432;6.880;2023-10-31T15:01:18;25.10;46.80
12060;DHT22;6091;51.432;6.880;2023-10-31T15:03:45;25.20;46.80
12060;DHT22;6091;51.432;6.880;2023-10-31T15:06:13;25.20;46.80
12060;DHT22;6091;51.432;6.880;2023-10-31T15:08:43;25.10;46.70
12060;DHT22;6091;51.432;6.880;2023-10-31T15:11:10;25.10;46.70
12060;DHT22;6091;51.432;6.880;2023-10-31T15:13:38;25.00;46.60
12060;DHT22;6091;51.432;6.880;2023-10-31T15:16:06;25.00;46.50
12060;DHT22;6091;51.432;6.880;2023-10-31T15:18:34;25.10;46.60
12060;DHT22;6091;51.432;6.880;2023-10-31T15:21:02;25.00;46.50
12060;DHT22;6091;51.432;6.880;2023-10-31T15:23:30;25.00;46.50
12060;DHT22;6091;51.432;6.880;2023-10-31T15:25:58;25.00;46.50
12060;DHT22;6091;51.432;6.880;2023-10-31T15:28:25;25.00;46.50
12060;DHT22;6091;51.432;6.880;2023-10-31T15:30:53;25.00;46.40
12060;DHT22;6091;51.432;6.880;2023-10-31T15:33:20;25.00;46.50
12060;DHT22;6091;51.432;6.880;2023-10-31T15:35:48;25.00;46.50
12060;DHT22;6091;51.432;6.880;2023-10-31T15:38:17;24.90;46.40
12060;DHT22;6091;51.432;6.880;2023-10-31T15:40:45;24.90;46.40
12060;DHT22;6091;51.432;6.880;2023-10-31T15:43:13;24.90;46.50
12060;DHT22;6091;51.432;6.880;2023-10-31T15:45:40;24.90;46.50
12060;DHT22;6091;51.432;6.880;2023-10-31T15:48:08;24.90;46.30
12060;DHT22;6091;51.432;6.880;2023-10-31T15:50:36;24.90;46.90
12060;DHT22;6091;51.432;6.880;2023-10-31T15:53:03;24.90;46.30
12060;DHT22;6091;51.432;6.880;2023-10-31T15:55:31;24.90;46.30
12060;DHT22;6091;51.432;6.880;2023-10-31T15:57:58;24.90;46.40
12060;DHT22;6091;51.432;6.880;2023-10-31T16:00:26;24.90;46.40
12060;DHT22;6091;51.432;6.880;2023-10-31T16:02:54;24.90;46.40
12060;DHT22;6091;51.432;6.880;2023-10-31T16:05:23;24.90;46.40